KFAY/FAY METAR and TAF weather

Enter ICAO airport designator
Station Type Date Time Source
KFAY METAR 2020/03/31 09:53 UTC NOAA

KFAY 310953Z 01009KT 10SM SCT075 OVC100 17/M01 A2990 RMK AO2 SLP117 T01721011


Station Type Date Time Source
KFAY Decoded METAR 2020/03/31 09:53 UTC NOAA

FAYETTEVILLE REGIONAL AIRPORT , NC, United States (KFAY) 34-59N 078-53W 55M
Mar 31, 2020 - 05:53 AM EDT / 2020.03.31 0953 UTC
Wind: from the N (010 degrees) at 10 MPH (9 KT):0
Visibility: 10 mile(s):0
Sky conditions: overcast
Temperature: 63.0 F (17.2 C)
Dew Point: 30.0 F (-1.1 C)
Relative Humidity: 28%
Pressure (altimeter): 29.9 in. Hg (1012 hPa)
ob: KFAY 310953Z 01009KT 10SM SCT075 OVC100 17/M01 A2990 RMK AO2 SLP117 T01721011
cycle: 10

Station Type Date Time Source
KFAY TAF 2020/03/31 06:27 UTC NOAA

TAF KFAY 310525Z 3106/0106 32006KT P6SM BKN250
FM311800 05007KT P6SM VCSH SCT030 OVC080
TEMPO 3118/3122 04010G18KT 5SM -RA BR OVC030
FM312200 04010G18KT 4SM -RA BR OVC010

Example: see airport list